sensor_id;sensor_type;location;lat;lon;timestamp;temperature;humidity
18067;DHT22;9158;51.528;7.192;2022-11-11T00:00:08;10.30;99.90
18067;DHT22;9158;51.528;7.192;2022-11-11T00:00:59;10.30;99.90
18067;DHT22;9158;51.528;7.192;2022-11-11T00:01:50;10.30;99.90
18067;DHT22;9158;51.528;7.192;2022-11-11T00:02:39;10.30;99.90
18067;DHT22;9158;51.528;7.192;2022-11-11T00:03:30;10.30;99.90
18067;DHT22;9158;51.528;7.192;2022-11-11T00:04:19;10.30;99.90
18067;DHT22;9158;51.528;7.192;2022-11-11T00:05:10;10.20;99.90
18067;DHT22;9158;51.528;7.192;2022-11-11T00:06:00;10.20;1.00
18067;DHT22;9158;51.528;7.192;2022-11-11T00:06:51;10.20;1.00
18067;DHT22;9158;51.528;7.192;2022-11-11T00:07:42;10.20;1.00
18067;DHT22;9158;51.528;7.192;2022-11-11T00:08:33;10.20;1.00
18067;DHT22;9158;51.528;7.192;2022-11-11T00:09:22;10.20;99.90
18067;DHT22;9158;51.528;7.192;2022-11-11T00:10:13;10.20;99.90
18067;DHT22;9158;51.528;7.192;2022-11-11T00:11:04;10.20;1.00
18067;DHT22;9158;51.528;7.192;2022-11-11T00:11:54;10.10;1.00
18067;DHT22;9158;51.528;7.192;2022-11-11T00:12:44;10.10;1.00
18067;DHT22;9158;51.528;7.192;2022-11-11T00:13:35;10.10;1.00
18067;DHT22;9158;51.528;7.192;2022-11-11T00:14:27;10.10;1.00
18067;DHT22;9158;51.528;7.192;2022-11-11T00:15:18;10.10;1.00
18067;DHT22;9158;51.528;7.192;2022-11-11T00:16:09;10.00;1.00
18067;DHT22;9158;51.528;7.192;2022-11-11T00:16:59;10.00;1.00
18067;DHT22;9158;51.528;7.192;2022-11-11T00:18:09;10.00;1.00
18067;DHT22;9158;51.528;7.192;2022-11-11T00:19:18;10.00;1.00
18067;DHT22;9158;51.528;7.192;2022-11-11T00:20:27;10.00;1.00
18067;DHT22;9158;51.528;7.192;2022-11-11T00:21:35;10.00;1.00
18067;DHT22;9158;51.528;7.192;2022-11-11T00:22:44;10.00;1.00
18067;DHT22;9158;51.528;7.192;2022-11-11T00:23:48;10.00;1.00
18067;DHT22;9158;51.528;7.192;2022-11-11T00:24:56;10.00;1.00
18067;DHT22;9158;51.528;7.192;2022-11-11T00:25:56;10.00;1.00
18067;DHT22;9158;51.528;7.192;2022-11-11T00:26:45;10.00;1.00
18067;DHT22;9158;51.528;7.192;2022-11-11T00:27:38;10.00;1.00
18067;DHT22;9158;51.528;7.192;2022-11-11T00:28:27;10.00;1.00
18067;DHT22;9158;51.528;7.192;2022-11-11T00:29:17;10.00;1.00
18067;DHT22;9158;51.528;7.192;2022-11-11T00:30:10;10.00;1.00
18067;DHT22;9158;51.528;7.192;2022-11-11T00:31:03;10.00;1.00
18067;DHT22;9158;51.528;7.192;2022-11-11T00:31:52;10.10;1.00
18067;DHT22;9158;51.528;7.192;2022-11-11T00:33:00;10.00;1.00
18067;DHT22;9158;51.528;7.192;2022-11-11T00:33:51;10.00;1.00
18067;DHT22;9158;51.528;7.192;2022-11-11T00:34:41;10.10;1.00
18067;DHT22;9158;51.528;7.192;2022-11-11T00:35:52;10.00;1.00
18067;DHT22;9158;51.528;7.192;2022-11-11T00:36:42;10.00;1.00
18067;DHT22;9158;51.528;7.192;2022-11-11T00:37:31;10.00;1.00
18067;DHT22;9158;51.528;7.192;2022-11-11T00:38:22;10.00;1.00
18067;DHT22;9158;51.528;7.192;2022-11-11T00:39:30;10.00;1.00
18067;DHT22;9158;51.528;7.192;2022-11-11T00:40:20;10.00;1.00
18067;DHT22;9158;51.528;7.192;2022-11-11T00:41:10;10.00;1.00
18067;DHT22;9158;51.528;7.192;2022-11-11T00:42:01;9.90;1.00
18067;DHT22;9158;51.528;7.192;2022-11-11T00:42:50;9.90;1.00
18067;DHT22;9158;51.528;7.192;2022-11-11T00:43:41;9.90;1.00
18067;DHT22;9158;51.528;7.192;2022-11-11T00:44:30;9.90;1.00
18067;DHT22;9158;51.528;7.192;2022-11-11T00:45:22;9.90;1.00
18067;DHT22;9158;51.528;7.192;2022-11-11T00:46:13;9.90;1.00
18067;DHT22;9158;51.528;7.192;2022-11-11T00:47:21;9.90;1.00
18067;DHT22;9158;51.528;7.192;2022-11-11T00:48:29;9.90;1.00
18067;DHT22;9158;51.528;7.192;2022-11-11T00:49:38;9.90;1.00
18067;DHT22;9158;51.528;7.192;2022-11-11T00:50:47;9.90;1.00
18067;DHT22;9158;51.528;7.192;2022-11-11T00:51:47;9.90;1.00
18067;DHT22;9158;51.528;7.192;2022-11-11T00:52:37;9.90;1.00
18067;DHT22;9158;51.528;7.192;2022-11-11T00:53:29;9.90;1.00
18067;DHT22;9158;51.528;7.192;2022-11-11T00:54:21;9.90;1.00
18067;DHT22;9158;51.528;7.192;2022-11-11T00:55:12;9.90;1.00
18067;DHT22;9158;51.528;7.192;2022-11-11T00:56:01;9.90;1.00
18067;DHT22;9158;51.528;7.192;2022-11-11T00:56:52;9.90;1.00
18067;DHT22;9158;51.528;7.192;2022-11-11T00:57:41;9.90;1.00
18067;DHT22;9158;51.528;7.192;2022-11-11T00:58:31;9.90;1.00
18067;DHT22;9158;51.528;7.192;2022-11-11T00:59:21;9.80;1.00
18067;DHT22;9158;51.528;7.192;2022-11-11T01:01:03;9.90;1.00
18067;DHT22;9158;51.528;7.192;2022-11-11T01:01:53;9.90;1.00
18067;DHT22;9158;51.528;7.192;2022-11-11T01:02:43;9.90;1.00
18067;DHT22;9158;51.528;7.192;2022-11-11T01:03:33;9.90;1.00
18067;DHT22;9158;51.528;7.192;2022-11-11T01:04:23;9.90;1.00
18067;DHT22;9158;51.528;7.192;2022-11-11T01:05:13;9.90;1.00
18067;DHT22;9158;51.528;7.192;2022-11-11T01:06:04;9.90;1.00
18067;DHT22;9158;51.528;7.192;2022-11-11T01:06:53;9.80;1.00
18067;DHT22;9158;51.528;7.192;2022-11-11T01:07:44;9.80;1.00
18067;DHT22;9158;51.528;7.192;2022-11-11T01:08:33;9.80;1.00
18067;DHT22;9158;51.528;7.192;2022-11-11T01:09:24;9.80;1.00
18067;DHT22;9158;51.528;7.192;2022-11-11T01:10:13;9.80;1.00
18067;DHT22;9158;51.528;7.192;2022-11-11T01:11:24;9.80;1.00
18067;DHT22;9158;51.528;7.192;2022-11-11T01:12:14;9.80;1.00
18067;DHT22;9158;51.528;7.192;2022-11-11T01:13:12;9.80;1.00
18067;DHT22;9158;51.528;7.192;2022-11-11T01:14:01;9.80;1.00
18067;DHT22;9158;51.528;7.192;2022-11-11T01:14:52;9.80;1.00
18067;DHT22;9158;51.528;7.192;2022-11-11T01:15:44;9.80;1.00
18067;DHT22;9158;51.528;7.192;2022-11-11T01:16:35;9.80;1.00
18067;DHT22;9158;51.528;7.192;2022-11-11T01:17:27;9.80;1.00
18067;DHT22;9158;51.528;7.192;2022-11-11T01:18:19;9.80;1.00
18067;DHT22;9158;51.528;7.192;2022-11-11T01:19:09;9.80;1.00
18067;DHT22;9158;51.528;7.192;2022-11-11T01:19:59;9.80;1.00
18067;DHT22;9158;51.528;7.192;2022-11-11T01:20:57;9.80;1.00
18067;DHT22;9158;51.528;7.192;2022-11-11T01:21:47;9.80;1.00
18067;DHT22;9158;51.528;7.192;2022-11-11T01:22:37;9.80;1.00
18067;DHT22;9158;51.528;7.192;2022-11-11T01:23:27;9.70;1.00
18067;DHT22;9158;51.528;7.192;2022-11-11T01:24:17;9.80;1.00
18067;DHT22;9158;51.528;7.192;2022-11-11T01:25:07;9.80;1.00
18067;DHT22;9158;51.528;7.192;2022-11-11T01:26:01;9.70;1.00
18067;DHT22;9158;51.528;7.192;2022-11-11T01:26:51;9.70;1.00
18067;DHT22;9158;51.528;7.192;2022-11-11T01:27:41;9.70;1.00
18067;DHT22;9158;51.528;7.192;2022-11-11T01:28:32;9.80;1.00
18067;DHT22;9158;51.528;7.192;2022-11-11T01:29:21;9.80;1.00
18067;DHT22;9158;51.528;7.192;2022-11-11T01:30:12;9.80;1.00
18067;DHT22;9158;51.528;7.192;2022-11-11T01:31:04;9.80;1.00
18067;DHT22;9158;51.528;7.192;2022-11-11T01:31:56;9.80;1.00
18067;DHT22;9158;51.528;7.192;2022-11-11T01:32:45;9.70;1.00
18067;DHT22;9158;51.528;7.192;2022-11-11T01:33:35;9.70;1.00
18067;DHT22;9158;51.528;7.192;2022-11-11T01:34:26;9.70;1.00
18067;DHT22;9158;51.528;7.192;2022-11-11T01:35:16;9.70;1.00
18067;DHT22;9158;51.528;7.192;2022-11-11T01:36:08;9.70;1.00
18067;DHT22;9158;51.528;7.192;2022-11-11T01:36:58;9.70;1.00
18067;DHT22;9158;51.528;7.192;2022-11-11T01:37:49;9.70;1.00
18067;DHT22;9158;51.528;7.192;2022-11-11T01:38:39;9.70;1.00
18067;DHT22;9158;51.528;7.192;2022-11-11T01:39:30;9.80;1.00
18067;DHT22;9158;51.528;7.192;2022-11-11T01:40:20;9.80;1.00
18067;DHT22;9158;51.528;7.192;2022-11-11T01:41:12;9.80;1.00
18067;DHT22;9158;51.528;7.192;2022-11-11T01:42:20;9.80;1.00
18067;DHT22;9158;51.528;7.192;2022-11-11T01:43:21;9.80;1.00
18067;DHT22;9158;51.528;7.192;2022-11-11T01:44:38;9.80;1.00
18067;DHT22;9158;51.528;7.192;2022-11-11T01:45:48;9.70;1.00
18067;DHT22;9158;51.528;7.192;2022-11-11T01:46:43;9.70;1.00
18067;DHT22;9158;51.528;7.192;2022-11-11T01:47:36;9.70;1.00
18067;DHT22;9158;51.528;7.192;2022-11-11T01:48:43;9.70;1.00
18067;DHT22;9158;51.528;7.192;2022-11-11T01:49:55;9.70;1.00
18067;DHT22;9158;51.528;7.192;2022-11-11T01:50:47;9.70;1.00
18067;DHT22;9158;51.528;7.192;2022-11-11T01:51:40;9.70;1.00
18067;DHT22;9158;51.528;7.192;2022-11-11T01:52:34;9.70;1.00
18067;DHT22;9158;51.528;7.192;2022-11-11T01:53:25;9.70;1.00
18067;DHT22;9158;51.528;7.192;2022-11-11T01:54:18;9.70;1.00
18067;DHT22;9158;51.528;7.192;2022-11-11T01:55:14;9.70;1.00
18067;DHT22;9158;51.528;7.192;2022-11-11T01:56:05;9.70;1.00
18067;DHT22;9158;51.528;7.192;2022-11-11T01:57:01;9.70;1.00
18067;DHT22;9158;51.528;7.192;2022-11-11T01:57:56;9.70;1.00
18067;DHT22;9158;51.528;7.192;2022-11-11T01:58:47;9.70;1.00
18067;DHT22;9158;51.528;7.192;2022-11-11T01:59:39;9.70;1.00
18067;DHT22;9158;51.528;7.192;2022-11-11T02:00:31;9.70;1.00
18067;DHT22;9158;51.528;7.192;2022-11-11T02:01:22;9.70;1.00
18067;DHT22;9158;51.528;7.192;2022-11-11T02:02:18;9.70;1.00
18067;DHT22;9158;51.528;7.192;2022-11-11T02:03:13;9.70;1.00
18067;DHT22;9158;51.528;7.192;2022-11-11T02:04:04;9.70;1.00
18067;DHT22;9158;51.528;7.192;2022-11-11T02:05:15;9.70;1.00
18067;DHT22;9158;51.528;7.192;2022-11-11T02:06:25;9.70;1.00
18067;DHT22;9158;51.528;7.192;2022-11-11T02:07:15;9.70;1.00
18067;DHT22;9158;51.528;7.192;2022-11-11T02:08:08;9.70;1.00
18067;DHT22;9158;51.528;7.192;2022-11-11T02:09:00;9.80;1.00
18067;DHT22;9158;51.528;7.192;2022-11-11T02:09:51;9.80;1.00
18067;DHT22;9158;51.528;7.192;2022-11-11T02:10:44;9.80;1.00
18067;DHT22;9158;51.528;7.192;2022-11-11T02:11:35;9.80;1.00
18067;DHT22;9158;51.528;7.192;2022-11-11T02:12:44;9.80;1.00
18067;DHT22;9158;51.528;7.192;2022-11-11T02:13:53;9.80;1.00
18067;DHT22;9158;51.528;7.192;2022-11-11T02:15:01;9.70;1.00
18067;DHT22;9158;51.528;7.192;2022-11-11T02:15:52;9.70;1.00
18067;DHT22;9158;51.528;7.192;2022-11-11T02:16:42;9.70;1.00
18067;DHT22;9158;51.528;7.192;2022-11-11T02:17:31;9.70;1.00
18067;DHT22;9158;51.528;7.192;2022-11-11T02:18:23;9.70;1.00
18067;DHT22;9158;51.528;7.192;2022-11-11T02:19:15;9.80;1.00
18067;DHT22;9158;51.528;7.192;2022-11-11T02:20:08;9.80;1.00
18067;DHT22;9158;51.528;7.192;2022-11-11T02:21:00;9.80;1.00
18067;DHT22;9158;51.528;7.192;2022-11-11T02:21:54;9.80;1.00
18067;DHT22;9158;51.528;7.192;2022-11-11T02:22:50;9.80;1.00
18067;DHT22;9158;51.528;7.192;2022-11-11T02:23:45;9.80;1.00
18067;DHT22;9158;51.528;7.192;2022-11-11T02:24:41;9.80;1.00
18067;DHT22;9158;51.528;7.192;2022-11-11T02:25:31;9.80;1.00
18067;DHT22;9158;51.528;7.192;2022-11-11T02:26:23;9.80;1.00
18067;DHT22;9158;51.528;7.192;2022-11-11T02:27:15;9.80;1.00
18067;DHT22;9158;51.528;7.192;2022-11-11T02:28:07;9.80;1.00
18067;DHT22;9158;51.528;7.192;2022-11-11T02:28:57;9.80;1.00
18067;DHT22;9158;51.528;7.192;2022-11-11T02:29:50;9.80;1.00
18067;DHT22;9158;51.528;7.192;2022-11-11T02:30:41;9.80;1.00
18067;DHT22;9158;51.528;7.192;2022-11-11T02:31:31;9.80;1.00
18067;DHT22;9158;51.528;7.192;2022-11-11T02:32:21;9.80;1.00
18067;DHT22;9158;51.528;7.192;2022-11-11T02:33:11;9.80;1.00
18067;DHT22;9158;51.528;7.192;2022-11-11T02:34:01;9.80;1.00
18067;DHT22;9158;51.528;7.192;2022-11-11T02:34:51;9.80;1.00
18067;DHT22;9158;51.528;7.192;2022-11-11T02:35:49;9.80;1.00
18067;DHT22;9158;51.528;7.192;2022-11-11T02:36:45;9.80;1.00
18067;DHT22;9158;51.528;7.192;2022-11-11T02:37:34;9.80;1.00
18067;DHT22;9158;51.528;7.192;2022-11-11T02:38:25;9.80;1.00
18067;DHT22;9158;51.528;7.192;2022-11-11T02:39:14;9.90;1.00
18067;DHT22;9158;51.528;7.192;2022-11-11T02:40:07;9.90;1.00
18067;DHT22;9158;51.528;7.192;2022-11-11T02:40:57;9.90;1.00
18067;DHT22;9158;51.528;7.192;2022-11-11T02:42:06;9.90;1.00
18067;DHT22;9158;51.528;7.192;2022-11-11T02:42:58;9.90;1.00
18067;DHT22;9158;51.528;7.192;2022-11-11T02:43:48;9.90;1.00
18067;DHT22;9158;51.528;7.192;2022-11-11T02:44:38;9.90;1.00
18067;DHT22;9158;51.528;7.192;2022-11-11T02:45:28;9.80;1.00
18067;DHT22;9158;51.528;7.192;2022-11-11T02:46:18;9.80;1.00
18067;DHT22;9158;51.528;7.192;2022-11-11T02:47:08;9.80;1.00
18067;DHT22;9158;51.528;7.192;2022-11-11T02:47:59;9.80;1.00
18067;DHT22;9158;51.528;7.192;2022-11-11T02:48:48;9.80;1.00
18067;DHT22;9158;51.528;7.192;2022-11-11T02:49:38;9.80;99.90
18067;DHT22;9158;51.528;7.192;2022-11-11T02:50:28;9.80;1.00
18067;DHT22;9158;51.528;7.192;2022-11-11T02:51:18;9.80;1.00
18067;DHT22;9158;51.528;7.192;2022-11-11T02:52:08;9.90;99.90
18067;DHT22;9158;51.528;7.192;2022-11-11T02:52:58;9.80;99.90
18067;DHT22;9158;51.528;7.192;2022-11-11T02:53:48;9.80;99.90
18067;DHT22;9158;51.528;7.192;2022-11-11T02:54:37;9.80;1.00
18067;DHT22;9158;51.528;7.192;2022-11-11T02:55:30;9.90;99.90
18067;DHT22;9158;51.528;7.192;2022-11-11T02:56:19;9.90;1.00
18067;DHT22;9158;51.528;7.192;2022-11-11T02:57:25;9.90;99.90
18067;DHT22;9158;51.528;7.192;2022-11-11T02:58:16;9.90;99.90
18067;DHT22;9158;51.528;7.192;2022-11-11T02:59:05;9.90;99.90
18067;DHT22;9158;51.528;7.192;2022-11-11T02:59:57;9.90;99.90
18067;DHT22;9158;51.528;7.192;2022-11-11T03:00:48;9.90;1.00
18067;DHT22;9158;51.528;7.192;2022-11-11T03:01:37;9.90;1.00
18067;DHT22;9158;51.528;7.192;2022-11-11T03:02:28;9.90;99.90
18067;DHT22;9158;51.528;7.192;2022-11-11T03:03:18;9.90;1.00
18067;DHT22;9158;51.528;7.192;2022-11-11T03:04:08;9.90;1.00
18067;DHT22;9158;51.528;7.192;2022-11-11T03:04:58;9.90;99.90
18067;DHT22;9158;51.528;7.192;2022-11-11T03:05:48;9.90;99.90
18067;DHT22;9158;51.528;7.192;2022-11-11T03:06:38;9.90;99.90
18067;DHT22;9158;51.528;7.192;2022-11-11T03:07:28;9.90;99.90
18067;DHT22;9158;51.528;7.192;2022-11-11T03:08:18;9.90;99.90
18067;DHT22;9158;51.528;7.192;2022-11-11T03:09:08;9.90;99.90
18067;DHT22;9158;51.528;7.192;2022-11-11T03:09:58;9.90;99.90
18067;DHT22;9158;51.528;7.192;2022-11-11T03:10:49;9.90;99.90
18067;DHT22;9158;51.528;7.192;2022-11-11T03:11:39;9.90;99.90
18067;DHT22;9158;51.528;7.192;2022-11-11T03:12:29;9.90;99.90
18067;DHT22;9158;51.528;7.192;2022-11-11T03:13:19;9.90;99.90
18067;DHT22;9158;51.528;7.192;2022-11-11T03:14:09;9.80;99.90
18067;DHT22;9158;51.528;7.192;2022-11-11T03:14:58;9.80;99.90
18067;DHT22;9158;51.528;7.192;2022-11-11T03:15:48;9.90;99.90
18067;DHT22;9158;51.528;7.192;2022-11-11T03:16:38;9.80;99.90
18067;DHT22;9158;51.528;7.192;2022-11-11T03:17:47;9.80;99.90
18067;DHT22;9158;51.528;7.192;2022-11-11T03:18:36;9.90;99.90
18067;DHT22;9158;51.528;7.192;2022-11-11T03:19:27;9.80;99.90
18067;DHT22;9158;51.528;7.192;2022-11-11T03:20:18;9.80;99.90
18067;DHT22;9158;51.528;7.192;2022-11-11T03:21:27;9.80;99.90
18067;DHT22;9158;51.528;7.192;2022-11-11T03:22:17;9.80;99.90
18067;DHT22;9158;51.528;7.192;2022-11-11T03:23:08;9.80;99.90
18067;DHT22;9158;51.528;7.192;2022-11-11T03:23:58;9.80;99.90
18067;DHT22;9158;51.528;7.192;2022-11-11T03:24:48;9.80;99.90
18067;DHT22;9158;51.528;7.192;2022-11-11T03:25:58;9.80;99.90
18067;DHT22;9158;51.528;7.192;2022-11-11T03:26:48;9.80;99.90
18067;DHT22;9158;51.528;7.192;2022-11-11T03:27:40;9.80;99.90
18067;DHT22;9158;51.528;7.192;2022-11-11T03:28:30;9.80;99.90
18067;DHT22;9158;51.528;7.192;2022-11-11T03:29:21;9.80;99.90
18067;DHT22;9158;51.528;7.192;2022-11-11T03:30:11;9.80;99.90
18067;DHT22;9158;51.528;7.192;2022-11-11T03:31:01;9.80;1.00
18067;DHT22;9158;51.528;7.192;2022-11-11T03:31:51;9.80;99.90
18067;DHT22;9158;51.528;7.192;2022-11-11T03:32:42;9.80;99.90
18067;DHT22;9158;51.528;7.192;2022-11-11T03:33:32;9.70;99.90
18067;DHT22;9158;51.528;7.192;2022-11-11T03:34:22;9.70;99.90
18067;DHT22;9158;51.528;7.192;2022-11-11T03:35:12;9.70;99.90
18067;DHT22;9158;51.528;7.192;2022-11-11T03:36:03;9.70;99.90
18067;DHT22;9158;51.528;7.192;2022-11-11T03:36:52;9.70;1.00
18067;DHT22;9158;51.528;7.192;2022-11-11T03:37:57;9.70;1.00
18067;DHT22;9158;51.528;7.192;2022-11-11T03:39:11;9.70;1.00
18067;DHT22;9158;51.528;7.192;2022-11-11T03:40:02;9.70;1.00
18067;DHT22;9158;51.528;7.192;2022-11-11T03:40:52;9.70;1.00
18067;DHT22;9158;51.528;7.192;2022-11-11T03:41:44;9.70;1.00
18067;DHT22;9158;51.528;7.192;2022-11-11T03:42:34;9.70;1.00
18067;DHT22;9158;51.528;7.192;2022-11-11T03:43:27;9.70;1.00
18067;DHT22;9158;51.528;7.192;2022-11-11T03:44:19;9.70;1.00
18067;DHT22;9158;51.528;7.192;2022-11-11T03:45:08;9.70;1.00
18067;DHT22;9158;51.528;7.192;2022-11-11T03:46:00;9.70;1.00
18067;DHT22;9158;51.528;7.192;2022-11-11T03:46:51;9.60;1.00
18067;DHT22;9158;51.528;7.192;2022-11-11T03:47:41;9.60;1.00
18067;DHT22;9158;51.528;7.192;2022-11-11T03:48:32;9.60;1.00
18067;DHT22;9158;51.528;7.192;2022-11-11T03:49:23;9.50;1.00
18067;DHT22;9158;51.528;7.192;2022-11-11T03:50:12;9.50;1.00
18067;DHT22;9158;51.528;7.192;2022-11-11T03:51:03;9.50;1.00
18067;DHT22;9158;51.528;7.192;2022-11-11T03:51:53;9.50;1.00
18067;DHT22;9158;51.528;7.192;2022-11-11T03:52:43;9.40;1.00
18067;DHT22;9158;51.528;7.192;2022-11-11T03:53:33;9.40;1.00
18067;DHT22;9158;51.528;7.192;2022-11-11T03:54:23;9.40;1.00
18067;DHT22;9158;51.528;7.192;2022-11-11T03:55:13;9.40;1.00
18067;DHT22;9158;51.528;7.192;2022-11-11T03:56:03;9.40;1.00
18067;DHT22;9158;51.528;7.192;2022-11-11T03:56:54;9.40;1.00
18067;DHT22;9158;51.528;7.192;2022-11-11T03:58:05;9.40;1.00
18067;DHT22;9158;51.528;7.192;2022-11-11T03:58:56;9.40;1.00
18067;DHT22;9158;51.528;7.192;2022-11-11T03:59:46;9.40;1.00
18067;DHT22;9158;51.528;7.192;2022-11-11T04:00:35;9.40;1.00
18067;DHT22;9158;51.528;7.192;2022-11-11T04:01:26;9.40;1.00
18067;DHT22;9158;51.528;7.192;2022-11-11T04:02:34;9.40;1.00
18067;DHT22;9158;51.528;7.192;2022-11-11T04:03:42;9.40;1.00
18067;DHT22;9158;51.528;7.192;2022-11-11T04:04:51;9.40;1.00
18067;DHT22;9158;51.528;7.192;2022-11-11T04:06:00;9.40;1.00
18067;DHT22;9158;51.528;7.192;2022-11-11T04:07:05;9.40;1.00
18067;DHT22;9158;51.528;7.192;2022-11-11T04:08:16;9.40;1.00
18067;DHT22;9158;51.528;7.192;2022-11-11T04:09:25;9.40;1.00
18067;DHT22;9158;51.528;7.192;2022-11-11T04:10:33;10.30;1.00
18067;DHT22;9158;51.528;7.192;2022-11-11T04:11:26;9.40;1.00
18067;DHT22;9158;51.528;7.192;2022-11-11T04:12:18;9.40;1.00
18067;DHT22;9158;51.528;7.192;2022-11-11T04:13:09;9.40;1.00
18067;DHT22;9158;51.528;7.192;2022-11-11T04:14:17;9.40;1.00
18067;DHT22;9158;51.528;7.192;2022-11-11T04:15:26;9.40;1.00
18067;DHT22;9158;51.528;7.192;2022-11-11T04:16:34;9.40;1.00
18067;DHT22;9158;51.528;7.192;2022-11-11T04:17:23;9.40;1.00
18067;DHT22;9158;51.528;7.192;2022-11-11T04:18:14;9.40;1.00
18067;DHT22;9158;51.528;7.192;2022-11-11T04:19:03;9.30;1.00
18067;DHT22;9158;51.528;7.192;2022-11-11T04:20:12;9.30;1.00
18067;DHT22;9158;51.528;7.192;2022-11-11T04:21:21;9.30;1.00
18067;DHT22;9158;51.528;7.192;2022-11-11T04:22:29;9.30;1.00
18067;DHT22;9158;51.528;7.192;2022-11-11T04:23:20;9.30;1.00
18067;DHT22;9158;51.528;7.192;2022-11-11T04:24:11;9.30;1.00
18067;DHT22;9158;51.528;7.192;2022-11-11T04:25:19;9.20;1.00
18067;DHT22;9158;51.528;7.192;2022-11-11T04:26:28;9.20;1.00
18067;DHT22;9158;51.528;7.192;2022-11-11T04:27:20;9.20;1.00
18067;DHT22;9158;51.528;7.192;2022-11-11T04:28:09;9.20;1.00
18067;DHT22;9158;51.528;7.192;2022-11-11T04:29:18;9.20;1.00
18067;DHT22;9158;51.528;7.192;2022-11-11T04:30:18;9.20;1.00
18067;DHT22;9158;51.528;7.192;2022-11-11T04:31:07;9.20;1.00
18067;DHT22;9158;51.528;7.192;2022-11-11T04:31:58;9.10;1.00
18067;DHT22;9158;51.528;7.192;2022-11-11T04:33:06;9.10;1.00
18067;DHT22;9158;51.528;7.192;2022-11-11T04:33:57;9.10;1.00
18067;DHT22;9158;51.528;7.192;2022-11-11T04:34:48;9.10;1.00
18067;DHT22;9158;51.528;7.192;2022-11-11T04:35:38;9.10;1.00
18067;DHT22;9158;51.528;7.192;2022-11-11T04:36:28;9.10;1.00
18067;DHT22;9158;51.528;7.192;2022-11-11T04:37:19;9.10;1.00
18067;DHT22;9158;51.528;7.192;2022-11-11T04:38:09;9.10;1.00
18067;DHT22;9158;51.528;7.192;2022-11-11T04:39:18;9.10;1.00
18067;DHT22;9158;51.528;7.192;2022-11-11T04:40:26;9.10;1.00
18067;DHT22;9158;51.528;7.192;2022-11-11T04:41:35;9.10;1.00
18067;DHT22;9158;51.528;7.192;2022-11-11T04:42:27;9.10;1.00
18067;DHT22;9158;51.528;7.192;2022-11-11T04:43:18;9.20;1.00
18067;DHT22;9158;51.528;7.192;2022-11-11T04:44:07;9.20;1.00
18067;DHT22;9158;51.528;7.192;2022-11-11T04:45:16;9.20;1.00
18067;DHT22;9158;51.528;7.192;2022-11-11T04:46:19;9.20;1.00
18067;DHT22;9158;51.528;7.192;2022-11-11T04:47:08;9.20;1.00
18067;DHT22;9158;51.528;7.192;2022-11-11T04:48:00;9.20;1.00
18067;DHT22;9158;51.528;7.192;2022-11-11T04:48:50;9.20;1.00
18067;DHT22;9158;51.528;7.192;2022-11-11T04:49:40;9.20;1.00
18067;DHT22;9158;51.528;7.192;2022-11-11T04:50:32;9.20;1.00
18067;DHT22;9158;51.528;7.192;2022-11-11T04:51:23;9.20;1.00
18067;DHT22;9158;51.528;7.192;2022-11-11T04:52:33;9.30;1.00
18067;DHT22;9158;51.528;7.192;2022-11-11T04:53:23;9.20;1.00
18067;DHT22;9158;51.528;7.192;2022-11-11T04:54:13;9.30;1.00
18067;DHT22;9158;51.528;7.192;2022-11-11T04:55:05;9.30;1.00
18067;DHT22;9158;51.528;7.192;2022-11-11T04:56:13;9.30;1.00
18067;DHT22;9158;51.528;7.192;2022-11-11T04:57:21;9.30;1.00
18067;DHT22;9158;51.528;7.192;2022-11-11T04:58:13;9.30;1.00
18067;DHT22;9158;51.528;7.192;2022-11-11T04:59:03;9.30;1.00
18067;DHT22;9158;51.528;7.192;2022-11-11T05:00:08;9.30;1.00
18067;DHT22;9158;51.528;7.192;2022-11-11T05:00:59;9.30;1.00
18067;DHT22;9158;51.528;7.192;2022-11-11T05:01:48;9.30;1.00
18067;DHT22;9158;51.528;7.192;2022-11-11T05:02:57;9.30;1.00
18067;DHT22;9158;51.528;7.192;2022-11-11T05:04:06;9.30;1.00
18067;DHT22;9158;51.528;7.192;2022-11-11T05:04:56;9.30;1.00
18067;DHT22;9158;51.528;7.192;2022-11-11T05:05:47;9.30;1.00
18067;DHT22;9158;51.528;7.192;2022-11-11T05:06:55;9.30;1.00
18067;DHT22;9158;51.528;7.192;2022-11-11T05:08:03;9.30;1.00
18067;DHT22;9158;51.528;7.192;2022-11-11T05:09:14;9.30;1.00
18067;DHT22;9158;51.528;7.192;2022-11-11T05:10:05;9.40;1.00
18067;DHT22;9158;51.528;7.192;2022-11-11T05:10:55;9.40;1.00
18067;DHT22;9158;51.528;7.192;2022-11-11T05:11:45;9.40;1.00
18067;DHT22;9158;51.528;7.192;2022-11-11T05:12:35;9.40;1.00
18067;DHT22;9158;51.528;7.192;2022-11-11T05:13:26;9.40;1.00
18067;DHT22;9158;51.528;7.192;2022-11-11T05:14:35;9.40;1.00
18067;DHT22;9158;51.528;7.192;2022-11-11T05:15:44;9.40;1.00
18067;DHT22;9158;51.528;7.192;2022-11-11T05:16:54;9.40;1.00
18067;DHT22;9158;51.528;7.192;2022-11-11T05:18:02;9.40;1.00
18067;DHT22;9158;51.528;7.192;2022-11-11T05:19:12;9.30;1.00
18067;DHT22;9158;51.528;7.192;2022-11-11T05:20:21;9.30;1.00
18067;DHT22;9158;51.528;7.192;2022-11-11T05:21:30;9.30;1.00
18067;DHT22;9158;51.528;7.192;2022-11-11T05:22:22;9.30;1.00
18067;DHT22;9158;51.528;7.192;2022-11-11T05:23:13;9.30;1.00
18067;DHT22;9158;51.528;7.192;2022-11-11T05:24:04;9.30;1.00
18067;DHT22;9158;51.528;7.192;2022-11-11T05:25:12;9.30;1.00
18067;DHT22;9158;51.528;7.192;2022-11-11T05:26:14;9.30;1.00
18067;DHT22;9158;51.528;7.192;2022-11-11T05:27:04;9.30;1.00
18067;DHT22;9158;51.528;7.192;2022-11-11T05:27:54;9.30;1.00
18067;DHT22;9158;51.528;7.192;2022-11-11T05:28:46;9.30;1.00
18067;DHT22;9158;51.528;7.192;2022-11-11T05:29:36;9.30;1.00
18067;DHT22;9158;51.528;7.192;2022-11-11T05:30:26;9.30;1.00
18067;DHT22;9158;51.528;7.192;2022-11-11T05:31:16;9.30;1.00
18067;DHT22;9158;51.528;7.192;2022-11-11T05:32:06;9.30;1.00
18067;DHT22;9158;51.528;7.192;2022-11-11T05:32:56;9.30;1.00
18067;DHT22;9158;51.528;7.192;2022-11-11T05:33:46;9.30;1.00
18067;DHT22;9158;51.528;7.192;2022-11-11T05:34:36;9.30;1.00
18067;DHT22;9158;51.528;7.192;2022-11-11T05:35:30;9.30;1.00
18067;DHT22;9158;51.528;7.192;2022-11-11T05:36:21;9.30;1.00
18067;DHT22;9158;51.528;7.192;2022-11-11T05:37:11;9.30;1.00
18067;DHT22;9158;51.528;7.192;2022-11-11T05:38:02;9.30;1.00
18067;DHT22;9158;51.528;7.192;2022-11-11T05:39:10;9.30;1.00
18067;DHT22;9158;51.528;7.192;2022-11-11T05:40:00;9.40;1.00
18067;DHT22;9158;51.528;7.192;2022-11-11T05:40:50;9.40;1.00
18067;DHT22;9158;51.528;7.192;2022-11-11T05:41:40;9.40;1.00
18067;DHT22;9158;51.528;7.192;2022-11-11T05:42:30;9.40;1.00
18067;DHT22;9158;51.528;7.192;2022-11-11T05:43:20;9.40;1.00
18067;DHT22;9158;51.528;7.192;2022-11-11T05:44:11;9.40;1.00
18067;DHT22;9158;51.528;7.192;2022-11-11T05:45:02;9.40;1.00
18067;DHT22;9158;51.528;7.192;2022-11-11T05:45:52;9.40;1.00
18067;DHT22;9158;51.528;7.192;2022-11-11T05:46:42;9.40;1.00
18067;DHT22;9158;51.528;7.192;2022-11-11T05:47:32;9.40;1.00
18067;DHT22;9158;51.528;7.192;2022-11-11T05:48:22;9.40;1.00
18067;DHT22;9158;51.528;7.192;2022-11-11T05:49:12;9.40;1.00
18067;DHT22;9158;51.528;7.192;2022-11-11T05:50:05;9.40;1.00
18067;DHT22;9158;51.528;7.192;2022-11-11T05:50:57;9.30;1.00
18067;DHT22;9158;51.528;7.192;2022-11-11T05:51:46;9.30;1.00
18067;DHT22;9158;51.528;7.192;2022-11-11T05:52:37;9.30;1.00
18067;DHT22;9158;51.528;7.192;2022-11-11T05:53:26;9.30;1.00
18067;DHT22;9158;51.528;7.192;2022-11-11T05:54:16;9.30;1.00
18067;DHT22;9158;51.528;7.192;2022-11-11T05:55:07;9.30;1.00
18067;DHT22;9158;51.528;7.192;2022-11-11T05:55:57;9.30;1.00
18067;DHT22;9158;51.528;7.192;2022-11-11T05:56:47;9.40;1.00
18067;DHT22;9158;51.528;7.192;2022-11-11T05:57:36;9.40;1.00
18067;DHT22;9158;51.528;7.192;2022-11-11T05:58:27;9.30;1.00
18067;DHT22;9158;51.528;7.192;2022-11-11T05:59:18;9.30;1.00